createdAt,value
2023-03-08T00:01:14.796Z,3.03
2023-03-08T00:03:43.194Z,4.10
2023-03-08T00:06:14.761Z,2.28
2023-03-08T00:08:43.335Z,3.08
2023-03-08T00:11:13.465Z,3.72
2023-03-08T00:13:42.373Z,2.90
2023-03-08T00:16:14.214Z,3.05
2023-03-08T00:18:42.865Z,3.43
2023-03-08T00:21:13.075Z,3.67
2023-03-08T00:23:41.622Z,3.30
2023-03-08T00:26:11.127Z,4.00
2023-03-08T00:28:39.567Z,3.53
2023-03-08T00:31:09.494Z,2.85
2023-03-08T00:33:39.019Z,3.88
2023-03-08T00:36:09.167Z,3.80
2023-03-08T00:38:38.030Z,3.05
2023-03-08T00:41:06.704Z,3.58
2023-03-08T00:43:35.864Z,3.40
2023-03-08T00:46:04.342Z,3.53
2023-03-08T00:48:32.900Z,3.47
2023-03-08T00:51:02.414Z,3.30
2023-03-08T00:53:30.939Z,2.63
2023-03-08T00:56:00.613Z,2.97
2023-03-08T00:58:30.023Z,3.08
2023-03-08T01:00:59.138Z,3.90
2023-03-08T01:03:27.747Z,3.55
2023-03-08T01:05:57.710Z,3.03
2023-03-08T01:08:28.421Z,4.10
2023-03-08T01:10:58.903Z,4.28
2023-03-08T01:13:28.427Z,1.67
2023-03-08T01:15:56.819Z,0.93
2023-03-08T01:18:25.246Z,3.30
2023-03-08T01:20:57.827Z,4.28
2023-03-08T01:23:27.661Z,4.15
2023-03-08T01:26:02.824Z,3.78
2023-03-08T01:28:31.463Z,3.83
2023-03-08T01:31:03.491Z,3.67
2023-03-08T01:33:31.809Z,4.78
2023-03-08T01:36:00.318Z,4.05
2023-03-08T01:38:30.037Z,3.53
2023-03-08T01:40:59.186Z,4.60
2023-03-08T01:43:29.888Z,5.10
2023-03-08T01:46:14.941Z,3.60
2023-03-08T01:48:48.369Z,2.95
2023-03-08T01:51:20.449Z,3.92
2023-03-08T01:53:50.905Z,3.88
2023-03-08T01:56:21.779Z,3.17
2023-03-08T01:58:52.728Z,3.15
2023-03-08T02:01:21.481Z,4.57
2023-03-08T02:03:49.916Z,5.35
2023-03-08T02:06:19.443Z,3.28
2023-03-08T02:08:49.069Z,4.13
2023-03-08T02:11:19.985Z,1.90
2023-03-08T02:13:48.483Z,4.85
2023-03-08T02:16:17.990Z,4.32
2023-03-08T02:18:58.516Z,4.82
2023-03-08T02:21:27.336Z,4.70
2023-03-08T02:23:57.011Z,4.25
2023-03-08T02:26:25.601Z,4.40
2023-03-08T02:28:53.754Z,4.97
2023-03-08T02:31:22.150Z,3.47
2023-03-08T02:33:50.236Z,4.22
2023-03-08T02:36:18.687Z,1.65
2023-03-08T02:38:46.756Z,4.50
2023-03-08T02:41:16.716Z,4.03
2023-03-08T02:43:44.796Z,3.58
2023-03-08T02:46:13.989Z,3.67
2023-03-08T02:48:42.157Z,1.40
2023-03-08T02:51:10.525Z,3.05
2023-03-08T02:53:38.616Z,2.33
2023-03-08T02:56:07.289Z,3.50
2023-03-08T02:58:36.789Z,3.08
2023-03-08T03:01:05.034Z,3.50
2023-03-08T03:03:33.492Z,4.28
2023-03-08T03:06:01.924Z,1.73
2023-03-08T03:08:31.467Z,3.58
2023-03-08T03:10:59.841Z,4.18
2023-03-08T03:13:27.950Z,2.72
2023-03-08T03:15:57.649Z,3.45
2023-03-08T03:18:25.814Z,3.10
2023-03-08T03:20:53.896Z,3.13
2023-03-08T03:23:22.016Z,3.22
2023-03-08T03:25:50.104Z,2.40
2023-03-08T03:28:18.636Z,2.97
2023-03-08T03:30:46.782Z,2.95
2023-03-08T03:33:16.549Z,3.67
2023-03-08T03:35:45.010Z,3.88
2023-03-08T03:38:13.154Z,3.17
2023-03-08T03:40:41.240Z,3.42
2023-03-08T03:43:09.421Z,3.20
2023-03-08T03:45:37.848Z,3.22
2023-03-08T03:48:06.161Z,2.20
2023-03-08T03:50:35.678Z,2.92
2023-03-08T03:53:03.813Z,2.97
2023-03-08T03:55:32.393Z,2.60
2023-03-08T03:58:00.472Z,2.50
2023-03-08T04:00:28.583Z,2.30
2023-03-08T04:02:56.964Z,2.53
2023-03-08T04:05:25.137Z,2.70
2023-03-08T04:07:54.971Z,3.20
2023-03-08T04:10:23.084Z,2.72
2023-03-08T04:12:51.537Z,3.22
2023-03-08T04:15:20.312Z,2.83
2023-03-08T04:17:48.391Z,2.90
2023-03-08T04:20:16.621Z,3.08
2023-03-08T04:22:45.058Z,1.25
2023-03-08T04:25:14.824Z,2.60
2023-03-08T04:27:42.933Z,3.15
2023-03-08T04:30:12.644Z,2.10
2023-03-08T04:32:40.861Z,2.67
2023-03-08T04:35:09.737Z,3.00
2023-03-08T04:37:39.123Z,3.03
2023-03-08T04:40:09.433Z,2.25
2023-03-08T04:42:41.148Z,2.47
2023-03-08T04:45:10.184Z,2.72
2023-03-08T04:47:38.484Z,2.15
2023-03-08T04:50:08.231Z,2.75
2023-03-08T04:52:36.584Z,2.67
2023-03-08T04:55:04.974Z,2.70
2023-03-08T04:57:33.091Z,2.53
2023-03-08T05:00:02.595Z,3.03
2023-03-08T05:02:33.345Z,3.60
2023-03-08T05:05:02.039Z,3.33
2023-03-08T05:07:30.188Z,2.65
2023-03-08T05:09:58.288Z,3.00
2023-03-08T05:12:26.653Z,2.83
2023-03-08T05:14:55.055Z,2.15
2023-03-08T05:17:24.513Z,2.95
2023-03-08T05:19:52.975Z,2.88
2023-03-08T05:22:21.352Z,3.03
2023-03-08T05:24:49.445Z,3.17
2023-03-08T05:27:17.929Z,3.47
2023-03-08T05:29:46.013Z,2.80
2023-03-08T05:32:15.103Z,4.13
2023-03-08T05:34:45.068Z,3.88
2023-03-08T05:37:13.465Z,3.42
2023-03-08T05:39:41.797Z,3.13
2023-03-08T05:42:12.088Z,3.08
2023-03-08T05:44:40.406Z,4.25
2023-03-08T05:47:08.990Z,3.10
2023-03-08T05:49:37.438Z,3.17
2023-03-08T05:52:07.440Z,3.05
2023-03-08T05:54:35.530Z,3.17
2023-03-08T05:57:03.901Z,3.08
2023-03-08T05:59:32.103Z,3.85
2023-03-08T06:02:00.228Z,3.95
2023-03-08T06:04:28.624Z,3.80
2023-03-08T06:06:57.155Z,3.55
2023-03-08T06:09:26.691Z,3.55
2023-03-08T06:11:55.717Z,2.05
2023-03-08T06:14:24.254Z,2.97
2023-03-08T06:16:52.727Z,3.30
2023-03-08T06:19:20.880Z,4.05
2023-03-08T06:21:48.949Z,3.55
2023-03-08T06:24:17.086Z,2.78
2023-03-08T06:26:46.544Z,4.30
2023-03-08T06:29:14.917Z,4.57
2023-03-08T06:31:43.484Z,4.00
2023-03-08T06:34:13.062Z,4.35
2023-03-08T06:36:41.617Z,4.07
2023-03-08T06:39:09.977Z,1.95
2023-03-08T06:41:38.334Z,4.13
2023-03-08T06:44:07.833Z,3.47
2023-03-08T06:46:35.914Z,3.70
2023-03-08T06:49:04.508Z,2.08
2023-03-08T06:51:32.580Z,4.63
2023-03-08T06:54:01.179Z,4.70
2023-03-08T06:56:29.342Z,3.50
2023-03-08T06:58:57.588Z,3.03
2023-03-08T07:01:27.115Z,4.97
2023-03-08T07:03:55.329Z,4.45
2023-03-08T07:06:23.967Z,1.02
2023-03-08T07:08:52.276Z,4.68
2023-03-08T07:11:20.660Z,3.10
2023-03-08T07:13:49.616Z,3.45
2023-03-08T07:16:18.129Z,4.22
2023-03-08T07:18:47.682Z,3.80
2023-03-08T07:21:16.171Z,3.85
2023-03-08T07:23:44.270Z,3.40
2023-03-08T07:26:12.952Z,3.92
2023-03-08T07:28:41.124Z,2.85
2023-03-08T07:31:13.342Z,3.80
2023-03-08T07:33:41.435Z,2.50
2023-03-08T07:36:11.300Z,3.65
2023-03-08T07:38:39.868Z,3.42
2023-03-08T07:41:08.098Z,2.03
2023-03-08T07:43:36.447Z,3.60
2023-03-08T07:46:05.305Z,2.60
2023-03-08T07:48:34.185Z,2.72
2023-03-08T07:51:04.389Z,4.00
2023-03-08T07:53:35.055Z,3.92
2023-03-08T07:56:03.602Z,4.10
2023-03-08T07:58:31.827Z,3.88
2023-03-08T08:01:00.231Z,3.67
2023-03-08T08:03:30.311Z,2.80
2023-03-08T08:05:58.761Z,3.95
2023-03-08T08:08:26.836Z,3.15
2023-03-08T08:10:56.324Z,2.70
2023-03-08T08:13:24.414Z,4.20
2023-03-08T08:15:59.929Z,2.85
2023-03-08T08:18:28.236Z,3.40
2023-03-08T08:21:02.675Z,3.90
2023-03-08T08:23:31.120Z,3.85
2023-03-08T08:26:01.264Z,2.17
2023-03-08T08:28:29.396Z,3.70
2023-03-08T08:30:58.906Z,3.80
2023-03-08T08:33:27.090Z,4.20
2023-03-08T08:35:55.214Z,1.90
2023-03-08T08:38:23.468Z,4.20
2023-03-08T08:40:52.122Z,4.18
2023-03-08T08:43:21.619Z,3.55
2023-03-08T08:45:54.494Z,5.80
2023-03-08T08:48:23.314Z,4.57
2023-03-08T08:50:52.024Z,4.50
2023-03-08T08:53:20.626Z,4.25
2023-03-08T08:55:49.195Z,4.10
2023-03-08T08:58:17.463Z,4.68
2023-03-08T09:00:47.309Z,4.38
2023-03-08T09:03:15.388Z,4.32
2023-03-08T09:05:45.614Z,4.50
2023-03-08T09:08:14.128Z,4.07
2023-03-08T09:10:43.585Z,3.97
2023-03-08T09:13:13.044Z,4.22
2023-03-08T09:15:41.198Z,4.15
2023-03-08T09:18:10.964Z,3.70
2023-03-08T09:20:39.402Z,3.70
2023-03-08T09:23:08.750Z,4.05
2023-03-08T09:25:36.870Z,3.53
2023-03-08T09:28:05.386Z,3.03
2023-03-08T09:30:33.952Z,3.50
2023-03-08T09:33:03.975Z,3.03
2023-03-08T09:35:33.498Z,3.00
2023-03-08T09:38:02.496Z,2.67
2023-03-08T09:40:35.138Z,3.13
2023-03-08T09:43:08.414Z,3.08
2023-03-08T09:45:36.686Z,2.97
2023-03-08T09:48:11.123Z,3.05
2023-03-08T09:50:46.954Z,3.13
2023-03-08T09:53:24.373Z,3.13
2023-03-08T09:55:57.086Z,2.95
2023-03-08T09:58:34.025Z,2.80
2023-03-08T10:01:11.353Z,2.92
2023-03-08T10:03:55.103Z,2.80
2023-03-08T10:06:33.948Z,3.58
2023-03-08T10:09:08.731Z,2.55
2023-03-08T10:11:45.135Z,2.65
2023-03-08T10:14:20.559Z,4.43
2023-03-08T10:16:53.276Z,3.90
2023-03-08T10:19:24.774Z,2.72
2023-03-08T10:21:56.576Z,2.97
2023-03-08T10:24:30.146Z,3.22
2023-03-08T10:27:07.688Z,4.82
2023-03-08T10:29:35.796Z,3.53
2023-03-08T10:32:04.469Z,3.88
2023-03-08T10:34:33.969Z,4.30
2023-03-08T10:37:06.846Z,2.92
2023-03-08T10:39:36.803Z,3.00
2023-03-08T10:42:15.228Z,3.45
2023-03-08T10:44:46.482Z,3.50
2023-03-08T10:47:21.690Z,3.30
2023-03-08T10:49:51.939Z,4.20
2023-03-08T10:52:27.916Z,3.42
2023-03-08T10:55:03.833Z,3.38
2023-03-08T10:57:32.119Z,4.45
2023-03-08T11:00:05.399Z,4.07
2023-03-08T11:02:33.811Z,3.80
2023-03-08T11:05:02.130Z,3.60
2023-03-08T11:07:33.942Z,3.58
2023-03-08T11:10:16.234Z,3.25
2023-03-08T11:12:45.071Z,3.03
2023-03-08T11:15:17.918Z,3.28
2023-03-08T11:17:54.333Z,3.40
2023-03-08T11:20:28.095Z,4.82
2023-03-08T11:23:22.213Z,3.70
2023-03-08T11:25:57.147Z,3.53
2023-03-08T11:28:40.878Z,4.22
2023-03-08T11:31:22.331Z,2.90
2023-03-08T11:34:25.812Z,3.92
2023-03-08T11:37:03.205Z,4.50
2023-03-08T11:39:36.209Z,4.47
2023-03-08T11:42:12.516Z,5.32
2023-03-08T11:45:08.456Z,4.45
2023-03-08T11:48:06.513Z,4.95
2023-03-08T11:50:39.465Z,4.32
2023-03-08T11:53:18.115Z,2.80
2023-03-08T11:56:15.268Z,4.07
2023-03-08T11:58:49.395Z,4.30
2023-03-08T12:01:22.119Z,3.20
2023-03-08T12:03:54.334Z,4.00
2023-03-08T12:06:29.716Z,3.53
2023-03-08T12:09:05.547Z,3.47
2023-03-08T12:11:41.765Z,3.67
2023-03-08T12:14:18.036Z,4.00
2023-03-08T12:16:51.052Z,3.72
2023-03-08T12:19:30.021Z,3.28
2023-03-08T12:22:10.139Z,3.08
2023-03-08T12:24:47.956Z,4.00
2023-03-08T12:27:23.619Z,2.83
2023-03-08T12:29:56.840Z,2.25
2023-03-08T12:32:25.986Z,2.67
2023-03-08T12:35:05.218Z,2.10
2023-03-08T12:37:33.806Z,2.28
2023-03-08T12:40:08.244Z,2.25
2023-03-08T12:42:40.034Z,1.70
2023-03-08T12:45:11.440Z,1.60
2023-03-08T12:47:40.252Z,2.17
2023-03-08T12:50:12.297Z,2.63
2023-03-08T12:52:40.463Z,2.20
2023-03-08T12:55:21.151Z,2.85
2023-03-08T12:57:53.580Z,2.40
2023-03-08T13:00:31.612Z,2.92
2023-03-08T13:03:01.960Z,2.78
2023-03-08T13:05:32.817Z,2.92
2023-03-08T13:08:25.281Z,2.83
2023-03-08T13:11:02.721Z,2.13
2023-03-08T13:13:48.810Z,2.65
2023-03-08T13:16:32.569Z,3.58
2023-03-08T13:19:19.261Z,2.80
2023-03-08T13:21:55.101Z,2.75
2023-03-08T13:24:36.669Z,2.83
2023-03-08T13:27:34.462Z,3.80
2023-03-08T13:30:24.048Z,3.22
2023-03-08T13:32:52.866Z,2.53
2023-03-08T13:35:22.238Z,2.63
2023-03-08T13:37:54.984Z,2.38
2023-03-08T13:40:24.264Z,2.55
2023-03-08T13:42:56.667Z,2.15
2023-03-08T13:45:26.697Z,1.88
2023-03-08T13:47:57.820Z,1.92
2023-03-08T13:50:31.300Z,2.42
2023-03-08T13:53:00.687Z,2.33
2023-03-08T13:55:33.750Z,3.30
2023-03-08T13:58:04.041Z,2.63
2023-03-08T14:00:34.968Z,3.17
2023-03-08T14:03:06.655Z,2.97
2023-03-08T14:05:41.348Z,1.83
2023-03-08T14:08:20.020Z,3.38
2023-03-08T14:10:51.685Z,3.83
2023-03-08T14:13:25.544Z,3.17
2023-03-08T14:15:57.952Z,4.05
2023-03-08T14:18:29.485Z,3.50
2023-03-08T14:21:07.064Z,3.83
2023-03-08T14:23:39.271Z,3.20
2023-03-08T14:29:14.747Z,3.03
2023-03-08T14:31:57.188Z,3.35
2023-03-08T14:34:27.496Z,3.42
2023-03-08T14:36:59.488Z,2.88
2023-03-08T14:39:29.790Z,3.25
2023-03-08T14:41:58.393Z,3.53
2023-03-08T14:44:29.797Z,3.70
2023-03-08T14:47:09.821Z,3.17
2023-03-08T14:49:37.955Z,3.45
2023-03-08T14:52:08.512Z,2.70
2023-03-08T14:54:38.573Z,2.60
2023-03-08T14:57:19.329Z,2.60
2023-03-08T14:59:48.441Z,2.72
2023-03-08T15:02:18.968Z,2.85
2023-03-08T15:04:47.838Z,2.53
2023-03-08T15:07:20.160Z,2.80
2023-03-08T15:09:48.828Z,2.92
2023-03-08T15:12:17.870Z,2.90
2023-03-08T15:14:46.336Z,3.15
2023-03-08T15:17:14.475Z,3.60
2023-03-08T15:19:44.272Z,3.10
2023-03-08T15:22:14.206Z,3.70
2023-03-08T15:24:42.368Z,3.35
2023-03-08T15:27:15.362Z,2.80
2023-03-08T15:29:43.527Z,2.92
2023-03-08T15:32:11.708Z,2.67
2023-03-08T15:34:40.889Z,3.03
2023-03-08T15:37:14.838Z,3.00
2023-03-08T15:39:43.195Z,3.88
2023-03-08T15:42:11.378Z,2.70
2023-03-08T15:44:39.539Z,3.22
2023-03-08T15:47:10.119Z,3.63
2023-03-08T15:49:38.202Z,3.10
2023-03-08T15:52:08.573Z,3.03
2023-03-08T15:54:40.291Z,2.83
2023-03-08T15:57:08.508Z,3.30
2023-03-08T15:59:36.828Z,4.05
2023-03-08T16:02:05.102Z,3.78
2023-03-08T16:04:33.590Z,4.32
2023-03-08T16:07:02.072Z,4.88
2023-03-08T16:09:30.153Z,4.25
2023-03-08T16:11:59.662Z,3.15
2023-03-08T16:14:27.815Z,2.47
2023-03-08T16:16:56.073Z,3.83
2023-03-08T16:19:24.521Z,3.30
2023-03-08T16:21:52.763Z,4.10
2023-03-08T16:24:20.868Z,4.35
2023-03-08T16:26:49.264Z,2.92
2023-03-08T16:29:18.781Z,3.10
2023-03-08T16:31:47.004Z,4.47
2023-03-08T16:34:15.226Z,3.75
2023-03-08T16:36:43.376Z,4.28
2023-03-08T16:39:11.776Z,4.50
2023-03-08T16:41:41.035Z,4.03
2023-03-08T16:44:17.403Z,4.15
2023-03-08T16:46:47.055Z,4.03
2023-03-08T16:49:16.136Z,4.60
2023-03-08T16:51:44.407Z,3.70
2023-03-08T16:54:13.734Z,2.95
2023-03-08T16:56:44.733Z,3.05
2023-03-08T16:59:14.589Z,2.65
2023-03-08T17:01:43.267Z,2.70
2023-03-08T17:04:12.950Z,1.95
2023-03-08T17:06:43.836Z,2.65
2023-03-08T17:09:12.246Z,2.45
2023-03-08T17:11:40.665Z,2.55
2023-03-08T17:14:11.032Z,2.45
2023-03-08T17:16:40.199Z,2.45
2023-03-08T17:19:09.711Z,3.10
2023-03-08T17:21:39.281Z,2.53
2023-03-08T17:24:09.775Z,2.25
2023-03-08T17:26:42.681Z,2.25
2023-03-08T17:29:10.978Z,2.28
2023-03-08T17:31:41.006Z,2.75
2023-03-08T17:34:09.843Z,2.40
2023-03-08T17:36:39.793Z,3.40
2023-03-08T17:39:08.282Z,2.75
2023-03-08T17:41:38.529Z,3.08
2023-03-08T17:44:07.230Z,2.85
2023-03-08T17:46:35.352Z,2.50
2023-03-08T17:49:03.564Z,2.40
2023-03-08T17:51:33.350Z,3.53
2023-03-08T17:54:03.203Z,6.35
2023-03-08T17:56:34.543Z,3.42
2023-03-08T17:59:03.191Z,2.20
2023-03-08T18:01:32.696Z,2.08
2023-03-08T18:04:01.276Z,2.72
2023-03-08T18:06:31.742Z,3.20
2023-03-08T18:09:02.820Z,3.20
2023-03-08T18:11:37.843Z,2.63
2023-03-08T18:14:06.535Z,2.72
2023-03-08T18:16:35.109Z,2.47
2023-03-08T18:19:04.489Z,1.80
2023-03-08T18:21:35.218Z,2.90
2023-03-08T18:24:05.441Z,13.45
2023-03-08T18:26:33.544Z,10.48
2023-03-08T18:29:01.635Z,4.18
2023-03-08T18:31:32.511Z,5.45
2023-03-08T18:34:00.626Z,2.75
2023-03-08T18:36:29.007Z,2.42
2023-03-08T18:38:57.193Z,2.95
2023-03-08T18:41:28.250Z,2.30
2023-03-08T18:43:57.415Z,2.50
2023-03-08T18:46:29.444Z,2.70
2023-03-08T18:48:58.194Z,2.53
2023-03-08T18:51:26.305Z,2.63
2023-03-08T18:53:56.405Z,2.30
2023-03-08T18:56:26.339Z,3.22
2023-03-08T18:58:55.189Z,3.10
2023-03-08T19:01:24.433Z,2.20
2023-03-08T19:03:53.128Z,3.35
2023-03-08T19:06:21.374Z,3.55
2023-03-08T19:08:49.463Z,2.65
2023-03-08T19:11:20.110Z,2.95
2023-03-08T19:13:50.688Z,3.13
2023-03-08T19:16:20.820Z,2.15
2023-03-08T19:18:50.037Z,3.08
2023-03-08T19:21:19.214Z,2.60
2023-03-08T19:23:47.952Z,3.03
2023-03-08T19:26:36.547Z,3.03
2023-03-08T19:29:07.913Z,3.03
2023-03-08T19:31:37.682Z,3.05
2023-03-08T19:34:06.649Z,3.58
2023-03-08T19:36:35.677Z,2.88
2023-03-08T19:39:04.650Z,3.55
2023-03-08T19:41:32.905Z,3.30
2023-03-08T19:44:06.765Z,2.90
2023-03-08T19:46:36.844Z,2.95
2023-03-08T19:49:06.786Z,3.22
2023-03-08T19:51:35.457Z,3.20
2023-03-08T19:54:04.081Z,3.00
2023-03-08T19:56:32.185Z,2.92
2023-03-08T19:59:00.626Z,3.30
2023-03-08T20:01:29.964Z,2.90
2023-03-08T20:03:59.705Z,3.20
2023-03-08T20:06:29.507Z,2.28
2023-03-08T20:08:57.878Z,3.53
2023-03-08T20:11:26.369Z,3.03
2023-03-08T20:13:54.943Z,4.03
2023-03-08T20:16:24.265Z,4.20
2023-03-08T20:18:55.481Z,3.58
2023-03-08T20:21:28.177Z,3.92
2023-03-08T20:23:57.529Z,4.38
2023-03-08T20:26:29.020Z,3.88
2023-03-08T20:28:57.992Z,3.17
2023-03-08T20:31:27.418Z,4.13
2023-03-08T20:33:55.897Z,3.63
2023-03-08T20:36:25.529Z,5.63
2023-03-08T20:38:55.513Z,4.50
2023-03-08T20:41:24.048Z,3.42
2023-03-08T20:43:55.958Z,4.28
2023-03-08T20:46:25.604Z,3.83
2023-03-08T20:48:54.348Z,3.42
2023-03-08T20:51:24.272Z,5.13
2023-03-08T20:53:55.257Z,4.68
2023-03-08T20:56:25.284Z,4.57
2023-03-08T20:58:55.227Z,4.22
2023-03-08T21:01:25.251Z,3.65
2023-03-08T21:03:53.450Z,4.40
2023-03-08T21:06:23.861Z,3.97
2023-03-08T21:08:53.553Z,4.47
2023-03-08T21:11:22.392Z,4.10
2023-03-08T21:13:52.126Z,4.53
2023-03-08T21:16:22.164Z,3.90
2023-03-08T21:18:50.944Z,3.92
2023-03-08T21:21:21.991Z,4.03
2023-03-08T21:23:52.777Z,4.40
2023-03-08T21:26:22.404Z,4.72
2023-03-08T21:28:50.493Z,4.93
2023-03-08T21:31:20.340Z,4.30
2023-03-08T21:33:48.662Z,4.28
2023-03-08T21:36:17.335Z,4.63
2023-03-08T21:38:45.742Z,4.00
2023-03-08T21:41:19.000Z,4.50
2023-03-08T21:43:48.740Z,5.65
2023-03-08T21:46:17.716Z,4.40
2023-03-08T21:48:46.359Z,4.78
2023-03-08T21:51:14.794Z,4.85
2023-03-08T21:53:43.605Z,3.75
2023-03-08T21:56:14.482Z,5.65
2023-03-08T21:58:43.535Z,4.30
2023-03-08T22:01:21.270Z,4.95
2023-03-08T22:03:49.861Z,5.53
2023-03-08T22:06:18.605Z,5.07
2023-03-08T22:08:47.469Z,4.68
2023-03-08T22:11:16.125Z,5.18
2023-03-08T22:13:44.277Z,5.72
2023-03-08T22:16:12.382Z,4.68
2023-03-08T22:18:41.939Z,5.75
2023-03-08T22:21:10.632Z,5.05
2023-03-08T22:23:38.712Z,5.05
2023-03-08T22:26:09.292Z,5.85
2023-03-08T22:28:38.730Z,4.28
2023-03-08T22:31:11.815Z,4.55
2023-03-08T22:33:41.658Z,5.32
2023-03-08T22:36:12.433Z,4.90
2023-03-08T22:38:41.197Z,4.75
2023-03-08T22:41:13.726Z,5.38
2023-03-08T22:43:42.794Z,6.20
2023-03-08T22:46:13.181Z,4.53
2023-03-08T22:48:43.205Z,5.35
2023-03-08T22:51:11.841Z,6.10
2023-03-08T22:53:40.813Z,6.32
2023-03-08T22:56:17.509Z,5.27
2023-03-08T22:58:45.608Z,5.57
2023-03-08T23:01:14.909Z,6.40
2023-03-08T23:03:45.009Z,7.05
2023-03-08T23:06:13.106Z,6.68
2023-03-08T23:08:41.468Z,4.15
2023-03-08T23:11:10.961Z,6.00
2023-03-08T23:13:39.580Z,5.90
2023-03-08T23:16:08.776Z,6.40
2023-03-08T23:18:37.017Z,6.78
2023-03-08T23:21:08.586Z,5.65
2023-03-08T23:23:37.032Z,6.03
2023-03-08T23:26:06.107Z,6.50
2023-03-08T23:28:35.902Z,6.22
2023-03-08T23:31:08.679Z,6.10
2023-03-08T23:33:37.217Z,6.45
2023-03-08T23:36:07.887Z,7.32
2023-03-08T23:38:36.142Z,6.57
2023-03-08T23:41:06.309Z,6.15
2023-03-08T23:43:34.586Z,6.38
2023-03-08T23:46:07.064Z,5.15
2023-03-08T23:48:35.693Z,7.10
2023-03-08T23:51:06.859Z,5.45
2023-03-08T23:53:35.234Z,5.78
2023-03-08T23:56:04.688Z,6.80
2023-03-08T23:58:32.834Z,7.15
